Time;durP1;ratioP1;P1;durP2;ratioP2;P2;SDS_P1;SDS_P2;PMS_P1;PMS_P2;Temp;Humidity;BMP_temperature;BMP_pressure;BME280_temperature;BME280_humidity;BME280_pressure;Samples;Min_cycle;Max_cycle;Signal;HPM_P1;HPM_P2
2023/03/01 00:02:15;;;;;;;;;;;1.50;47.80;;;;;;4915845;29;19919;-91
2023/03/01 00:04:40;;;;;;;;;;;1.50;47.80;;;;;;4909058;29;19927;-91
2023/03/01 00:07:06;;;;;;;;;;;1.40;47.80;;;;;;4905875;29;19915;-91
2023/03/01 00:09:32;;;;;;;;;;;1.40;47.80;;;;;;4912517;29;19922;-91
2023/03/01 00:11:58;;;;;;;;;;;1.30;47.70;;;;;;4928781;29;19935;-94
2023/03/01 00:14:23;;;;;;;;;;;1.30;47.60;;;;;;4916243;29;20347;-92
2023/03/01 00:16:49;;;;;;;;;;;1.30;47.70;;;;;;4913464;29;19923;-89
2023/03/01 00:19:21;;;;;;;;;;;1.20;47.70;;;;;;4915700;29;19967;-94
2023/03/01 00:21:47;;;;;;;;;;;1.10;47.60;;;;;;4928147;29;19911;-90
2023/03/01 00:24:13;;;;;;;;;;;1.10;48.30;;;;;;4899015;29;20427;-94
2023/03/01 00:26:43;;;;;;;;;;;1.10;49.40;;;;;;4913956;29;19914;-95
2023/03/01 00:29:17;;;;;;;;;;;1.10;49.10;;;;;;4936845;29;19918;-90
2023/03/01 00:31:49;;;;;;;;;;;1.10;48.70;;;;;;4910689;29;19914;-90
2023/03/01 00:34:14;;;;;;;;;;;1.10;48.50;;;;;;4918752;29;20381;-90
2023/03/01 00:36:44;;;;;;;;;;;1.10;48.50;;;;;;4930867;29;20065;-91
2023/03/01 00:39:12;;;;;;;;;;;1.10;48.40;;;;;;4923562;29;20590;-89
2023/03/01 00:41:37;;;;;;;;;;;1.10;48.40;;;;;;4921328;29;19919;-92
2023/03/01 00:44:03;;;;;;;;;;;1.10;48.50;;;;;;4904903;29;19915;-92
2023/03/01 00:46:30;;;;;;;;;;;1.10;48.50;;;;;;4918641;29;20350;-90
2023/03/01 00:48:56;;;;;;;;;;;1.20;48.60;;;;;;4925649;29;20618;-90
2023/03/01 00:51:22;;;;;;;;;;;1.20;48.80;;;;;;4922774;29;19962;-90
2023/03/01 00:53:50;;;;;;;;;;;1.20;48.90;;;;;;4922207;29;20398;-90
2023/03/01 00:56:17;;;;;;;;;;;1.20;49.10;;;;;;4925618;29;19926;-90
2023/03/01 00:58:43;;;;;;;;;;;1.10;48.90;;;;;;4927580;29;19918;-90
2023/03/01 01:01:16;;;;;;;;;;;1.10;48.90;;;;;;4906684;29;19923;-90
2023/03/01 01:03:43;;;;;;;;;;;1.10;48.90;;;;;;4912835;29;19916;-93
2023/03/01 01:06:13;;;;;;;;;;;1.10;48.80;;;;;;4923908;29;19919;-94
2023/03/01 01:08:41;;;;;;;;;;;1.00;48.70;;;;;;4901895;29;19915;-90
2023/03/01 01:11:08;;;;;;;;;;;1.00;48.60;;;;;;4911630;29;20026;-90
2023/03/01 01:13:33;;;;;;;;;;;1.00;48.50;;;;;;4905982;29;19935;-91
2023/03/01 01:16:02;;;;;;;;;;;1.00;48.40;;;;;;4922851;29;20278;-89
2023/03/01 01:18:28;;;;;;;;;;;0.90;48.40;;;;;;4922001;29;20005;-90
2023/03/01 01:20:53;;;;;;;;;;;0.80;48.40;;;;;;4907189;29;19927;-92
2023/03/01 01:23:19;;;;;;;;;;;0.80;48.40;;;;;;4930379;29;21757;-94
2023/03/01 01:25:45;;;;;;;;;;;0.80;48.40;;;;;;4922643;29;20354;-90
2023/03/01 01:28:10;;;;;;;;;;;0.70;48.40;;;;;;4925399;29;19934;-92
2023/03/01 01:30:36;;;;;;;;;;;0.70;48.80;;;;;;4916536;29;19954;-89
2023/03/01 01:33:02;;;;;;;;;;;0.70;49.20;;;;;;4904325;29;19923;-94
2023/03/01 01:35:28;;;;;;;;;;;0.70;49.20;;;;;;4905121;29;19926;-90
2023/03/01 01:37:54;;;;;;;;;;;0.70;49.20;;;;;;4903914;29;19922;-89
2023/03/01 01:40:19;;;;;;;;;;;0.70;49.10;;;;;;4923285;29;19995;-91
2023/03/01 01:42:45;;;;;;;;;;;0.60;49.00;;;;;;4927928;29;19919;-89
2023/03/01 01:45:29;;;;;;;;;;;0.60;48.90;;;;;;4921665;29;19919;-89
2023/03/01 01:47:57;;;;;;;;;;;0.60;48.80;;;;;;4933540;29;20370;-90
2023/03/01 01:50:23;;;;;;;;;;;0.50;48.80;;;;;;4930980;29;19918;-94
2023/03/01 01:52:50;;;;;;;;;;;0.50;48.70;;;;;;4900833;29;19919;-90
2023/03/01 01:58:08;;;;;;;;;;;0.40;48.70;;;;;;4916265;29;19923;-93
2023/03/01 02:00:34;;;;;;;;;;;0.50;49.20;;;;;;4930439;29;19919;-90
2023/03/01 02:03:01;;;;;;;;;;;0.50;49.40;;;;;;4915836;29;19919;-91
2023/03/01 02:06:03;;;;;;;;;;;0.50;49.50;;;;;;4918864;29;20001;-93
2023/03/01 02:08:30;;;;;;;;;;;0.60;49.50;;;;;;4865641;29;19970;-91
2023/03/01 02:10:56;;;;;;;;;;;0.60;49.50;;;;;;4890484;29;19965;-94
2023/03/01 02:13:22;;;;;;;;;;;0.50;49.30;;;;;;4910012;29;19927;-90
2023/03/01 02:15:48;;;;;;;;;;;0.50;49.20;;;;;;4912117;29;20383;-93
2023/03/01 02:18:16;;;;;;;;;;;0.50;49.10;;;;;;4906101;29;19923;-90
2023/03/01 02:21:00;;;;;;;;;;;0.50;49.10;;;;;;4926588;29;19939;-92
2023/03/01 02:23:27;;;;;;;;;;;0.50;49.00;;;;;;4909081;29;19926;-89
2023/03/01 02:25:58;;;;;;;;;;;0.40;49.10;;;;;;4921631;29;19919;-89
2023/03/01 02:28:25;;;;;;;;;;;0.40;49.10;;;;;;4930046;29;20396;-93
2023/03/01 02:33:38;;;;;;;;;;;0.40;49.00;;;;;;4920059;29;20011;-93
2023/03/01 02:36:24;;;;;;;;;;;0.30;48.90;;;;;;4917366;29;19971;-92
2023/03/01 02:38:52;;;;;;;;;;;0.30;48.90;;;;;;4910269;29;19914;-91
2023/03/01 02:41:19;;;;;;;;;;;0.30;48.80;;;;;;4933238;29;19930;-89
2023/03/01 02:43:45;;;;;;;;;;;0.20;48.80;;;;;;4928911;29;19915;-91
2023/03/01 02:46:15;;;;;;;;;;;0.30;48.80;;;;;;4898082;29;19927;-91
2023/03/01 02:48:46;;;;;;;;;;;0.20;48.70;;;;;;4918348;29;19939;-92
2023/03/01 02:51:18;;;;;;;;;;;0.20;48.80;;;;;;4897207;29;19919;-90
2023/03/01 02:53:56;;;;;;;;;;;0.20;48.70;;;;;;4898608;29;19923;-92
2023/03/01 02:56:22;;;;;;;;;;;0.20;48.70;;;;;;4909277;29;19980;-93
2023/03/01 02:58:51;;;;;;;;;;;0.10;48.70;;;;;;4938556;29;19923;-90
2023/03/01 03:01:20;;;;;;;;;;;0.10;48.60;;;;;;4918299;29;20052;-91
2023/03/01 03:03:45;;;;;;;;;;;0.10;48.60;;;;;;4905151;29;19922;-90
2023/03/01 03:06:11;;;;;;;;;;;0.00;48.60;;;;;;4919832;29;19922;-91
2023/03/01 03:08:39;;;;;;;;;;;0.00;48.50;;;;;;4927048;29;20493;-92
2023/03/01 03:11:04;;;;;;;;;;;0.00;48.50;;;;;;4899876;29;20019;-90
2023/03/01 03:13:32;;;;;;;;;;;0.00;48.40;;;;;;4917501;29;20000;-93
2023/03/01 03:15:57;;;;;;;;;;;0.00;48.40;;;;;;4919113;29;19915;-90
2023/03/01 03:18:25;;;;;;;;;;;-3276.70;48.40;;;;;;4917540;29;19922;-90
2023/03/01 03:20:52;;;;;;;;;;;-3276.70;48.40;;;;;;4917665;29;20385;-91
2023/03/01 03:23:18;;;;;;;;;;;-3276.70;48.40;;;;;;4900493;29;19942;-93
2023/03/01 03:25:44;;;;;;;;;;;-3276.60;48.40;;;;;;4918870;29;20341;-90
2023/03/01 03:28:09;;;;;;;;;;;-3276.60;48.50;;;;;;4899983;29;20287;-92
2023/03/01 03:30:36;;;;;;;;;;;-3276.60;48.50;;;;;;4899971;29;19977;-90
2023/03/01 03:33:03;;;;;;;;;;;-3276.60;48.60;;;;;;4909642;29;20005;-90
2023/03/01 03:35:30;;;;;;;;;;;-3276.60;48.60;;;;;;4919860;29;19931;-93
2023/03/01 03:38:02;;;;;;;;;;;-3276.50;48.60;;;;;;4937139;29;19965;-92
2023/03/01 03:40:32;;;;;;;;;;;-3276.50;48.60;;;;;;4936407;29;19915;-91
2023/03/01 03:42:58;;;;;;;;;;;-3276.50;48.70;;;;;;4936658;29;19932;-90
2023/03/01 03:45:26;;;;;;;;;;;-3276.40;48.70;;;;;;4936559;29;19926;-93
2023/03/01 03:47:53;;;;;;;;;;;-3276.40;48.70;;;;;;4920143;29;19922;-90
2023/03/01 03:50:18;;;;;;;;;;;-3276.40;48.70;;;;;;4936371;29;20262;-91
2023/03/01 03:52:44;;;;;;;;;;;-3276.40;48.70;;;;;;4921006;29;19919;-90
2023/03/01 03:55:11;;;;;;;;;;;-3276.30;48.70;;;;;;4921701;29;20261;-91
2023/03/01 03:57:40;;;;;;;;;;;-3276.30;48.70;;;;;;4939766;29;20334;-94
2023/03/01 04:00:12;;;;;;;;;;;-3276.30;48.70;;;;;;4909708;29;19915;-92
2023/03/01 04:02:38;;;;;;;;;;;-3276.30;48.70;;;;;;4904704;29;19947;-91
2023/03/01 04:05:09;;;;;;;;;;;-3276.30;48.70;;;;;;4896756;29;19915;-90
2023/03/01 04:07:35;;;;;;;;;;;-3276.30;48.70;;;;;;4920986;29;19916;-92
2023/03/01 04:10:02;;;;;;;;;;;-3276.30;48.80;;;;;;4924473;29;20264;-90
2023/03/01 04:12:28;;;;;;;;;;;-3276.20;48.80;;;;;;4903762;29;19915;-90
2023/03/01 04:15:12;;;;;;;;;;;-3276.20;48.70;;;;;;4920918;29;19935;-92
2023/03/01 04:17:41;;;;;;;;;;;-3276.20;48.70;;;;;;4927804;29;19919;-93
2023/03/01 04:20:09;;;;;;;;;;;-3276.20;48.70;;;;;;4922873;29;19915;-90
2023/03/01 04:22:35;;;;;;;;;;;-3276.20;48.70;;;;;;4939108;29;20022;-89
2023/03/01 04:25:04;;;;;;;;;;;-3276.10;48.80;;;;;;4937493;29;19962;-91
2023/03/01 04:27:30;;;;;;;;;;;-3276.10;49.00;;;;;;4919262;29;19954;-92
2023/03/01 04:29:57;;;;;;;;;;;-3276.20;49.10;;;;;;4934514;29;19927;-91
2023/03/01 04:32:23;;;;;;;;;;;-3276.20;49.10;;;;;;4935931;29;20397;-91
2023/03/01 04:34:59;;;;;;;;;;;-3276.20;49.20;;;;;;4921205;29;20351;-92
2023/03/01 04:37:25;;;;;;;;;;;-3276.20;49.20;;;;;;4923380;29;20081;-93
2023/03/01 04:39:51;;;;;;;;;;;-3276.20;49.20;;;;;;4922050;29;19957;-90
2023/03/01 04:42:17;;;;;;;;;;;-3276.10;49.30;;;;;;4920692;29;19915;-90
2023/03/01 04:44:43;;;;;;;;;;;-3276.10;49.40;;;;;;4936500;29;19918;-91
2023/03/01 04:47:09;;;;;;;;;;;-3276.10;49.30;;;;;;4923062;29;19926;-92
2023/03/01 04:49:35;;;;;;;;;;;-3276.10;49.30;;;;;;4901338;29;19922;-93
2023/03/01 04:52:04;;;;;;;;;;;-3276.10;49.20;;;;;;4901127;29;19971;-94
2023/03/01 04:54:32;;;;;;;;;;;-3276.10;49.20;;;;;;4935731;29;20008;-90
2023/03/01 04:56:59;;;;;;;;;;;-3276.10;49.20;;;;;;4919251;29;19915;-90
2023/03/01 04:59:25;;;;;;;;;;;-3276.00;49.10;;;;;;4935629;29;20405;-91
2023/03/01 05:01:51;;;;;;;;;;;-3276.00;49.10;;;;;;4918780;29;19930;-91
2023/03/01 05:04:17;;;;;;;;;;;-3276.00;49.10;;;;;;4920911;29;19976;-91
2023/03/01 05:06:42;;;;;;;;;;;-3275.90;49.10;;;;;;4919556;29;19951;-92
2023/03/01 05:09:08;;;;;;;;;;;-3275.90;49.10;;;;;;4935282;29;19915;-91
2023/03/01 05:11:35;;;;;;;;;;;-3275.90;49.20;;;;;;4936579;29;19919;-91
2023/03/01 05:14:03;;;;;;;;;;;-3275.90;49.20;;;;;;4938476;29;20362;-91
2023/03/01 05:16:30;;;;;;;;;;;-3275.90;49.30;;;;;;4932308;29;19915;-90
2023/03/01 05:18:56;;;;;;;;;;;-3275.90;49.20;;;;;;4903816;29;19922;-91
2023/03/01 05:21:22;;;;;;;;;;;-3275.90;49.20;;;;;;4934985;29;19921;-90
2023/03/01 05:23:48;;;;;;;;;;;-3275.90;49.30;;;;;;4935051;29;19944;-92
2023/03/01 05:26:14;;;;;;;;;;;-3275.90;49.20;;;;;;4917750;29;19919;-92
2023/03/01 05:28:39;;;;;;;;;;;-3275.90;49.20;;;;;;4927707;29;20286;-90
2023/03/01 05:31:09;;;;;;;;;;;-3275.90;49.20;;;;;;4899772;29;20018;-89
2023/03/01 05:33:38;;;;;;;;;;;-3275.90;49.20;;;;;;4904706;29;19991;-91
2023/03/01 05:36:04;;;;;;;;;;;-3275.90;49.20;;;;;;4905388;29;20014;-90
2023/03/01 05:38:37;;;;;;;;;;;-3275.90;49.10;;;;;;5062215;28;19925;-91
2023/03/01 05:41:03;;;;;;;;;;;-3275.90;49.10;;;;;;5047312;28;20431;-90
2023/03/01 05:43:33;;;;;;;;;;;-3275.90;49.20;;;;;;5046715;28;20352;-90
2023/03/01 05:45:59;;;;;;;;;;;-3275.90;49.20;;;;;;5047828;28;20323;-90
2023/03/01 05:48:25;;;;;;;;;;;-3275.90;49.20;;;;;;5047554;28;19917;-90
2023/03/01 05:50:51;;;;;;;;;;;-3275.90;49.30;;;;;;5046794;28;19913;-93
2023/03/01 05:53:19;;;;;;;;;;;-3275.90;49.40;;;;;;5046232;28;20012;-90
2023/03/01 05:55:47;;;;;;;;;;;-3275.90;49.50;;;;;;5048128;28;20004;-90
2023/03/01 05:58:16;;;;;;;;;;;-3275.90;49.70;;;;;;5045414;28;19929;-90
2023/03/01 06:00:43;;;;;;;;;;;-3275.90;49.90;;;;;;5040977;28;19966;-91
2023/03/01 06:03:10;;;;;;;;;;;-3275.90;49.70;;;;;;5044649;28;19943;-91
2023/03/01 06:05:35;;;;;;;;;;;-3275.90;49.50;;;;;;5048562;28;19913;-90
2023/03/01 06:08:04;;;;;;;;;;;-3275.90;49.40;;;;;;5045842;28;20016;-90
2023/03/01 06:10:29;;;;;;;;;;;-3275.90;49.50;;;;;;5048940;28;19968;-94
2023/03/01 06:12:55;;;;;;;;;;;-3275.90;49.60;;;;;;5048224;28;19917;-91
2023/03/01 06:15:22;;;;;;;;;;;-3276.00;49.70;;;;;;5047249;28;19921;-91
2023/03/01 06:17:47;;;;;;;;;;;-3276.00;49.80;;;;;;5049268;28;20264;-91
2023/03/01 06:20:14;;;;;;;;;;;-3276.00;49.90;;;;;;5047846;28;19917;-90
2023/03/01 06:22:40;;;;;;;;;;;-3276.10;50.00;;;;;;5046705;28;20003;-90
2023/03/01 06:25:08;;;;;;;;;;;-3276.10;50.30;;;;;;5042633;28;19959;-91
2023/03/01 06:27:33;;;;;;;;;;;-3276.30;50.90;;;;;;5028502;28;20016;-91
2023/03/01 06:29:59;;;;;;;;;;;-3276.50;51.30;;;;;;5028430;28;19957;-90
2023/03/01 06:32:25;;;;;;;;;;;-3276.70;51.70;;;;;;5027453;28;19929;-91
2023/03/01 06:34:50;;;;;;;;;;;0.10;52.30;;;;;;5025244;28;19920;-90
2023/03/01 06:37:16;;;;;;;;;;;0.40;52.80;;;;;;5036915;28;19929;-93
2023/03/01 06:39:42;;;;;;;;;;;0.70;53.20;;;;;;5047193;28;19962;-91
2023/03/01 06:42:09;;;;;;;;;;;1.10;53.60;;;;;;5047970;28;19917;-90
2023/03/01 06:44:35;;;;;;;;;;;1.40;53.90;;;;;;5030517;28;19987;-91
2023/03/01 06:47:01;;;;;;;;;;;1.80;54.30;;;;;;5030778;28;19925;-92
2023/03/01 06:49:27;;;;;;;;;;;2.20;54.50;;;;;;5018711;28;20059;-90
2023/03/01 06:51:53;;;;;;;;;;;2.70;54.70;;;;;;5016945;28;19921;-90
2023/03/01 06:54:21;;;;;;;;;;;3.10;54.70;;;;;;5034667;28;19916;-91
2023/03/01 06:56:48;;;;;;;;;;;3.50;54.60;;;;;;5034518;28;19972;-92
2023/03/01 06:59:14;;;;;;;;;;;4.00;54.50;;;;;;5049618;28;19913;-90
2023/03/01 07:01:39;;;;;;;;;;;4.40;54.50;;;;;;5014830;28;20016;-92
2023/03/01 07:04:05;;;;;;;;;;;4.90;54.40;;;;;;5014485;28;19940;-91
2023/03/01 07:06:31;;;;;;;;;;;5.30;54.10;;;;;;5014930;28;20369;-91
2023/03/01 07:08:59;;;;;;;;;;;5.70;53.70;;;;;;5012848;28;19917;-92
2023/03/01 07:11:32;;;;;;;;;;;6.00;53.70;;;;;;5014777;28;20372;-90
2023/03/01 07:13:59;;;;;;;;;;;6.40;54.30;;;;;;5031780;28;19955;-90
2023/03/01 07:16:25;;;;;;;;;;;6.80;54.80;;;;;;5006784;28;19917;-90
2023/03/01 07:18:51;;;;;;;;;;;7.20;55.50;;;;;;5034021;28;20307;-91
2023/03/01 07:21:20;;;;;;;;;;;7.60;56.60;;;;;;5016011;28;19917;-90
2023/03/01 07:23:49;;;;;;;;;;;8.10;57.20;;;;;;5016538;28;19921;-91
2023/03/01 07:26:19;;;;;;;;;;;8.50;57.50;;;;;;5014797;28;19948;-89
2023/03/01 07:28:50;;;;;;;;;;;9.00;57.20;;;;;;5014699;28;19914;-92
2023/03/01 07:31:21;;;;;;;;;;;9.30;57.00;;;;;;5013024;28;19992;-90
2023/03/01 07:33:49;;;;;;;;;;;9.70;56.80;;;;;;5029029;28;20539;-92
2023/03/01 07:36:15;;;;;;;;;;;10.10;56.70;;;;;;5013274;28;19923;-91
2023/03/01 07:38:46;;;;;;;;;;;10.50;56.10;;;;;;5028636;28;20472;-92
2023/03/01 07:41:32;;;;;;;;;;;10.80;55.80;;;;;;5008834;28;19921;-89
2023/03/01 07:43:58;;;;;;;;;;;11.30;55.80;;;;;;5014179;28;19920;-91
2023/03/01 07:46:24;;;;;;;;;;;11.70;55.80;;;;;;5030363;28;19917;-93
2023/03/01 07:48:50;;;;;;;;;;;12.10;56.00;;;;;;5028895;28;19913;-91
2023/03/01 07:51:18;;;;;;;;;;;12.50;56.10;;;;;;5024700;28;20005;-90
2023/03/01 07:53:45;;;;;;;;;;;12.90;56.60;;;;;;5013947;28;19952;-91
2023/03/01 07:56:21;;;;;;;;;;;13.40;56.70;;;;;;5015002;28;20012;-91
2023/03/01 07:58:50;;;;;;;;;;;13.70;56.50;;;;;;5018493;28;19964;-91
2023/03/01 08:01:16;;;;;;;;;;;14.10;56.30;;;;;;5032795;28;19928;-91
2023/03/01 08:03:45;;;;;;;;;;;14.40;56.50;;;;;;5027995;28;19929;-92
2023/03/01 08:06:12;;;;;;;;;;;14.70;56.50;;;;;;4995760;28;20014;-91
2023/03/01 08:08:37;;;;;;;;;;;15.00;56.30;;;;;;5024179;28;19925;-88
2023/03/01 08:11:06;;;;;;;;;;;15.30;55.70;;;;;;5011482;28;20017;-92
2023/03/01 08:13:32;;;;;;;;;;;15.70;54.60;;;;;;5026870;28;19928;-93
2023/03/01 08:16:04;;;;;;;;;;;15.90;53.80;;;;;;5029555;28;20376;-90
2023/03/01 08:18:33;;;;;;;;;;;16.20;53.70;;;;;;5007869;28;19917;-91
2023/03/01 08:21:03;;;;;;;;;;;16.50;54.30;;;;;;5026856;28;19971;-92
2023/03/01 08:23:29;;;;;;;;;;;16.80;53.80;;;;;;5027928;28;19925;-92
2023/03/01 08:26:02;;;;;;;;;;;17.10;53.80;;;;;;5008989;28;20407;-91
2023/03/01 08:28:30;;;;;;;;;;;17.40;53.50;;;;;;5009374;28;19933;-91
2023/03/01 08:30:56;;;;;;;;;;;17.60;52.80;;;;;;5013631;28;19978;-91
2023/03/01 08:33:22;;;;;;;;;;;17.80;52.10;;;;;;5026675;28;19991;-91
2023/03/01 08:35:47;;;;;;;;;;;18.00;52.20;;;;;;5008376;28;19917;-90
2023/03/01 08:38:13;;;;;;;;;;;18.20;52.00;;;;;;5023701;28;19983;-93
2023/03/01 08:40:43;;;;;;;;;;;18.50;52.10;;;;;;5028047;28;19921;-91
2023/03/01 08:43:09;;;;;;;;;;;18.60;50.80;;;;;;5028988;28;19925;-91
2023/03/01 08:45:35;;;;;;;;;;;18.70;49.40;;;;;;5023333;28;20718;-90
2023/03/01 08:48:01;;;;;;;;;;;18.80;49.70;;;;;;5015502;28;20024;-88
2023/03/01 08:50:26;;;;;;;;;;;19.10;50.30;;;;;;5028181;28;20631;-92
2023/03/01 08:52:52;;;;;;;;;;;19.20;52.00;;;;;;5027544;28;19967;-92
2023/03/01 08:55:18;;;;;;;;;;;19.50;53.30;;;;;;5029504;28;19975;-92
2023/03/01 08:57:44;;;;;;;;;;;19.70;52.80;;;;;;5009124;28;19921;-94
2023/03/01 09:00:14;;;;;;;;;;;19.90;53.20;;;;;;5025204;28;19949;-90
2023/03/01 09:02:40;;;;;;;;;;;20.10;53.70;;;;;;5023851;28;19937;-91
2023/03/01 09:05:07;;;;;;;;;;;20.30;52.90;;;;;;5022272;28;20035;-91
2023/03/01 09:07:33;;;;;;;;;;;20.40;53.40;;;;;;5003189;28;19933;-91
2023/03/01 09:09:59;;;;;;;;;;;20.60;52.20;;;;;;5023650;28;19933;-94
2023/03/01 09:12:26;;;;;;;;;;;20.70;52.70;;;;;;5023372;28;19917;-89
2023/03/01 09:14:51;;;;;;;;;;;20.70;52.80;;;;;;5024302;28;19925;-93
2023/03/01 09:17:21;;;;;;;;;;;20.90;52.60;;;;;;5003569;28;20685;-91
2023/03/01 09:19:46;;;;;;;;;;;21.00;52.20;;;;;;5001741;28;20399;-90
2023/03/01 09:22:12;;;;;;;;;;;21.10;53.20;;;;;;5038567;28;20004;-92
2023/03/01 09:24:39;;;;;;;;;;;21.30;52.70;;;;;;5002585;28;20032;-89
2023/03/01 09:27:08;;;;;;;;;;;21.40;51.50;;;;;;5008894;28;19979;-93
2023/03/01 09:29:35;;;;;;;;;;;21.60;49.90;;;;;;5027516;28;19960;-92
2023/03/01 09:32:03;;;;;;;;;;;21.70;50.20;;;;;;5027848;28;19917;-90
2023/03/01 09:34:29;;;;;;;;;;;21.80;49.60;;;;;;5010950;28;19928;-92
2023/03/01 09:36:54;;;;;;;;;;;21.90;49.30;;;;;;5006500;28;19926;-92
2023/03/01 09:39:20;;;;;;;;;;;22.00;48.70;;;;;;5008172;28;20901;-91
2023/03/01 09:41:46;;;;;;;;;;;22.00;48.20;;;;;;5008379;28;20291;-90
2023/03/01 09:44:31;;;;;;;;;;;22.10;46.20;;;;;;5007307;28;19921;-93
2023/03/01 09:47:02;;;;;;;;;;;21.90;42.90;;;;;;5007235;28;19944;-93
2023/03/01 09:49:30;;;;;;;;;;;21.60;44.10;;;;;;5006849;28;19921;-93
2023/03/01 09:52:14;;;;;;;;;;;21.60;46.20;;;;;;5006864;28;19913;-90
2023/03/01 09:54:42;;;;;;;;;;;21.70;47.20;;;;;;5016990;28;19927;-91
2023/03/01 09:57:16;;;;;;;;;;;21.80;45.90;;;;;;5009647;28;20357;-92
2023/03/01 09:59:41;;;;;;;;;;;21.80;45.20;;;;;;5018201;28;19979;-95
2023/03/01 10:02:16;;;;;;;;;;;21.80;44.50;;;;;;5027214;28;19917;-94
2023/03/01 10:04:46;;;;;;;;;;;21.80;44.10;;;;;;5028520;28;19928;-92
2023/03/01 10:07:23;;;;;;;;;;;21.70;42.80;;;;;;5007807;28;20376;-90
2023/03/01 10:09:49;;;;;;;;;;;21.50;40.60;;;;;;5005964;28;20682;-91
2023/03/01 10:12:19;;;;;;;;;;;21.10;40.00;;;;;;5046304;28;19917;-91
2023/03/01 10:14:55;;;;;;;;;;;21.00;40.20;;;;;;5028177;28;19924;-90
2023/03/01 10:17:20;;;;;;;;;;;20.80;39.20;;;;;;5007942;28;19917;-93
2023/03/01 10:19:46;;;;;;;;;;;20.70;38.80;;;;;;5024182;28;19971;-89
2023/03/01 10:22:18;;;;;;;;;;;20.50;36.80;;;;;;5025106;28;20047;-90
2023/03/01 10:24:46;;;;;;;;;;;20.30;37.60;;;;;;5028530;28;19917;-95
2023/03/01 10:27:21;;;;;;;;;;;20.20;36.40;;;;;;5029993;28;19931;-92
2023/03/01 10:29:56;;;;;;;;;;;20.10;33.00;;;;;;5014081;28;19921;-91
2023/03/01 10:32:22;;;;;;;;;;;19.70;32.00;;;;;;5030565;28;19920;-90
2023/03/01 10:34:47;;;;;;;;;;;19.30;30.50;;;;;;5012902;28;19917;-95
2023/03/01 10:37:15;;;;;;;;;;;19.20;32.10;;;;;;5011774;28;20487;-91
2023/03/01 10:40:04;;;;;;;;;;;19.10;32.70;;;;;;5011656;28;19923;-94
2023/03/01 10:42:34;;;;;;;;;;;19.00;31.60;;;;;;5011825;28;19928;-91
2023/03/01 10:45:15;;;;;;;;;;;19.10;34.40;;;;;;5029972;28;19958;-92
2023/03/01 10:47:41;;;;;;;;;;;19.20;33.60;;;;;;5011603;28;19929;-94
2023/03/01 10:50:21;;;;;;;;;;;19.30;33.20;;;;;;5012977;28;19928;-93
2023/03/01 10:53:00;;;;;;;;;;;19.30;31.20;;;;;;5026155;28;20435;-91
2023/03/01 10:55:36;;;;;;;;;;;19.40;31.50;;;;;;5017854;28;19924;-94
2023/03/01 10:58:15;;;;;;;;;;;19.40;29.60;;;;;;5030028;28;20023;-91
2023/03/01 11:00:48;;;;;;;;;;;19.40;29.60;;;;;;5012368;28;19920;-91
2023/03/01 11:03:18;;;;;;;;;;;19.50;29.80;;;;;;5030141;28;20280;-94
2023/03/01 11:05:50;;;;;;;;;;;19.70;28.80;;;;;;5032018;28;19940;-92
2023/03/01 11:08:30;;;;;;;;;;;19.70;28.40;;;;;;5012806;28;19972;-91
2023/03/01 11:11:14;;;;;;;;;;;19.70;28.50;;;;;;5030976;28;19996;-93
2023/03/01 11:13:57;;;;;;;;;;;19.60;27.00;;;;;;5030120;28;19928;-91
2023/03/01 11:16:34;;;;;;;;;;;19.40;26.00;;;;;;5005934;28;19932;-90
2023/03/01 11:19:08;;;;;;;;;;;19.30;24.70;;;;;;5011630;28;20049;-91
2023/03/01 11:21:36;;;;;;;;;;;19.00;24.30;;;;;;4994088;28;19913;-90
2023/03/01 11:24:03;;;;;;;;;;;18.80;24.80;;;;;;5010906;28;20013;-91
2023/03/01 11:26:30;;;;;;;;;;;18.80;24.50;;;;;;5005950;28;19917;-92
2023/03/01 11:28:57;;;;;;;;;;;18.80;24.80;;;;;;5029587;28;19921;-91
2023/03/01 11:31:23;;;;;;;;;;;18.70;25.00;;;;;;5030081;28;19992;-91
2023/03/01 11:33:48;;;;;;;;;;;18.70;24.20;;;;;;5044085;28;19925;-90
2023/03/01 11:36:29;;;;;;;;;;;18.50;23.90;;;;;;5012098;28;20372;-91
2023/03/01 11:38:55;;;;;;;;;;;18.30;23.90;;;;;;5009224;28;19928;-95
2023/03/01 11:41:26;;;;;;;;;;;18.40;24.70;;;;;;5028401;28;20653;-92
2023/03/01 11:44:03;;;;;;;;;;;18.50;24.50;;;;;;5009700;28;19921;-91
2023/03/01 11:46:32;;;;;;;;;;;18.60;24.70;;;;;;5005002;28;19917;-90
2023/03/01 11:48:58;;;;;;;;;;;18.70;24.20;;;;;;5039563;28;19956;-91
2023/03/01 11:51:46;;;;;;;;;;;18.70;24.40;;;;;;5010989;28;20563;-92
2023/03/01 11:54:28;;;;;;;;;;;18.80;24.00;;;;;;5027361;28;20383;-91
2023/03/01 11:57:23;;;;;;;;;;;18.80;23.90;;;;;;5011750;28;19924;-90
2023/03/01 11:59:57;;;;;;;;;;;18.60;23.70;;;;;;5012546;28;19925;-92
2023/03/01 12:02:23;;;;;;;;;;;18.70;23.80;;;;;;5028103;28;19960;-95
2023/03/01 12:04:55;;;;;;;;;;;18.70;23.40;;;;;;5027259;28;19963;-90
2023/03/01 12:07:32;;;;;;;;;;;18.50;23.80;;;;;;5040849;28;19929;-94
2023/03/01 12:10:36;;;;;;;;;;;18.50;23.30;;;;;;5029919;28;20327;-91
2023/03/01 12:13:21;;;;;;;;;;;18.40;23.50;;;;;;4931932;29;20005;-91
2023/03/01 12:15:55;;;;;;;;;;;18.30;23.40;;;;;;4935578;29;19922;-95
2023/03/01 12:18:34;;;;;;;;;;;18.10;23.50;;;;;;4991235;28;19917;-92
2023/03/01 12:21:24;;;;;;;;;;;18.00;23.30;;;;;;5009635;28;19917;-95
2023/03/01 12:23:49;;;;;;;;;;;17.90;23.20;;;;;;5025717;28;19925;-92
2023/03/01 12:26:31;;;;;;;;;;;17.70;23.30;;;;;;5043773;28;20073;-92
2023/03/01 12:29:15;;;;;;;;;;;17.70;23.50;;;;;;5007144;28;20043;-92
2023/03/01 12:31:47;;;;;;;;;;;17.50;23.50;;;;;;5017478;28;19917;-92
2023/03/01 12:34:28;;;;;;;;;;;17.50;23.60;;;;;;5041557;28;19921;-90
2023/03/01 12:36:59;;;;;;;;;;;17.40;23.60;;;;;;5039682;28;19921;-91
2023/03/01 12:39:49;;;;;;;;;;;17.50;23.60;;;;;;5008792;28;19945;-93
2023/03/01 12:42:24;;;;;;;;;;;17.30;23.40;;;;;;5018132;28;19921;-91
2023/03/01 12:45:01;;;;;;;;;;;17.40;24.10;;;;;;5009312;28;19917;-92
2023/03/01 12:47:48;;;;;;;;;;;17.30;23.30;;;;;;5027411;28;19929;-94
2023/03/01 12:50:23;;;;;;;;;;;17.10;23.20;;;;;;5026960;28;20475;-91
2023/03/01 12:52:51;;;;;;;;;;;17.10;23.40;;;;;;5007819;28;19921;-91
2023/03/01 12:55:22;;;;;;;;;;;17.00;23.20;;;;;;5017993;28;19932;-90
2023/03/01 12:58:14;;;;;;;;;;;16.80;23.60;;;;;;5008281;28;19917;-89
2023/03/01 13:00:46;;;;;;;;;;;16.70;23.60;;;;;;5009408;28;19929;-91
2023/03/01 13:03:17;;;;;;;;;;;16.60;23.80;;;;;;5027287;28;19923;-91
2023/03/01 13:05:52;;;;;;;;;;;16.50;23.60;;;;;;5014869;28;19995;-91
2023/03/01 13:08:17;;;;;;;;;;;16.30;23.60;;;;;;5022157;28;20269;-92
2023/03/01 13:10:46;;;;;;;;;;;16.10;23.70;;;;;;5026896;28;20017;-94
2023/03/01 13:13:14;;;;;;;;;;;15.60;23.90;;;;;;5013974;28;19921;-93
2023/03/01 13:15:40;;;;;;;;;;;15.10;24.50;;;;;;5013434;28;19939;-91
2023/03/01 13:18:15;;;;;;;;;;;14.70;25.10;;;;;;5030924;28;19951;-91
2023/03/01 13:20:44;;;;;;;;;;;14.30;25.60;;;;;;5041110;28;19924;-91
2023/03/01 13:23:25;;;;;;;;;;;13.90;26.00;;;;;;5032454;28;19921;-91
2023/03/01 13:26:06;;;;;;;;;;;13.50;26.30;;;;;;5031876;28;19992;-91
2023/03/01 13:28:31;;;;;;;;;;;13.10;26.50;;;;;;5015609;28;20448;-90
2023/03/01 13:30:57;;;;;;;;;;;12.90;26.90;;;;;;5033244;28;19960;-93
2023/03/01 13:33:23;;;;;;;;;;;12.80;27.20;;;;;;5032403;28;20563;-92
2023/03/01 13:35:49;;;;;;;;;;;12.70;27.50;;;;;;5045319;28;20582;-93
2023/03/01 13:38:33;;;;;;;;;;;12.60;28.00;;;;;;5030217;28;19925;-90
2023/03/01 13:40:59;;;;;;;;;;;12.50;28.30;;;;;;5012419;28;20012;-91
2023/03/01 13:43:29;;;;;;;;;;;12.30;28.70;;;;;;5010998;28;20000;-94
2023/03/01 13:45:55;;;;;;;;;;;12.30;28.70;;;;;;5012155;28;19917;-92
2023/03/01 13:48:23;;;;;;;;;;;12.20;28.50;;;;;;5027265;28;19929;-91
2023/03/01 13:50:51;;;;;;;;;;;12.30;28.60;;;;;;5012186;28;19917;-92
2023/03/01 13:53:18;;;;;;;;;;;12.20;28.60;;;;;;5026775;28;19921;-95
2023/03/01 13:55:46;;;;;;;;;;;12.20;28.40;;;;;;5011661;28;19917;-91
2023/03/01 13:58:23;;;;;;;;;;;12.20;28.30;;;;;;5028088;28;19921;-90
2023/03/01 14:00:55;;;;;;;;;;;12.20;28.70;;;;;;5014825;28;19926;-94
2023/03/01 14:03:21;;;;;;;;;;;12.20;28.90;;;;;;5035082;28;19921;-95
2023/03/01 14:06:07;;;;;;;;;;;12.20;29.30;;;;;;5017175;28;19916;-91
2023/03/01 14:08:42;;;;;;;;;;;12.20;28.90;;;;;;5005607;28;20028;-94
2023/03/01 14:11:07;;;;;;;;;;;12.20;29.20;;;;;;5016541;28;19917;-91
2023/03/01 14:13:36;;;;;;;;;;;12.20;29.10;;;;;;5033406;28;19927;-91
2023/03/01 14:16:08;;;;;;;;;;;12.20;29.30;;;;;;5030127;28;19917;-92
2023/03/01 14:18:52;;;;;;;;;;;12.10;29.10;;;;;;5015471;28;19928;-90
2023/03/01 14:21:18;;;;;;;;;;;12.10;28.70;;;;;;5008131;28;19917;-88
2023/03/01 14:23:44;;;;;;;;;;;12.00;28.90;;;;;;5010599;28;20420;-93
2023/03/01 14:26:11;;;;;;;;;;;12.00;28.70;;;;;;5035075;28;20004;-92
2023/03/01 14:28:38;;;;;;;;;;;12.00;28.70;;;;;;5016652;28;19925;-93
2023/03/01 14:31:24;;;;;;;;;;;12.00;28.80;;;;;;5013816;28;19913;-92